Time;durP1;ratioP1;P1;durP2;ratioP2;P2;SDS_P1;SDS_P2;PMS_P1;PMS_P2;Temp;Humidity;BMP_temperature;BMP_pressure;BME280_temperature;BME280_humidity;BME280_pressure;Samples;Min_cycle;Max_cycle;Signal;HPM_P1;HPM_P2
2023/12/11 15:23:47;;;;;;;1.52;1.20;;;;;;;6.88;100.00;91919.53;5065039;28;20689;-77
2023/12/11 15:26:19;;;;;;;1.65;1.30;;;;;;;6.93;100.00;91897.88;5046969;28;20029;-77
2023/12/11 15:28:46;;;;;;;1.67;1.30;;;;;;;6.98;100.00;91915.28;5063498;28;20043;-77
2023/12/11 15:31:12;;;;;;;1.65;1.20;;;;;;;7.03;100.00;91936.81;5050391;28;20034;-77
2023/12/11 15:33:37;;;;;;;2.45;1.73;;;;;;;6.96;100.00;91930.38;5031462;28;20029;-77
2023/12/11 15:36:04;;;;;;;1.95;1.45;;;;;;;6.87;100.00;91933.63;5035051;28;20488;-77
2023/12/11 15:38:31;;;;;;;2.45;1.50;;;;;;;6.67;100.00;91910.41;5029070;28;20037;-77
2023/12/11 15:40:57;;;;;;;3.17;1.85;;;;;;;6.59;100.00;91935.16;5021752;28;20378;-77
2023/12/11 15:43:23;;;;;;;1.83;1.38;;;;;;;6.54;100.00;91937.06;5013811;28;20041;-78
2023/12/11 15:45:49;;;;;;;2.45;1.60;;;;;;;6.52;100.00;91931.34;5039241;28;20368;-77
2023/12/11 15:48:14;;;;;;;4.00;2.30;;;;;;;6.50;100.00;91913.41;5025729;28;20041;-77
2023/12/11 15:50:40;;;;;;;3.08;1.45;;;;;;;6.50;100.00;91887.41;5032169;28;20041;-77
2023/12/11 15:53:05;;;;;;;1.88;1.30;;;;;;;6.50;100.00;91907.44;5026813;28;20026;-77
2023/12/11 15:55:32;;;;;;;3.65;1.33;;;;;;;6.55;100.00;91933.41;5032820;28;20336;-78
2023/12/11 15:57:58;;;;;;;2.92;1.40;;;;;;;6.51;100.00;91937.59;5027140;28;20373;-77
2023/12/11 16:00:24;;;;;;;2.85;1.33;;;;;;;6.51;100.00;91906.38;5026712;28;20042;-77
2023/12/11 16:02:49;;;;;;;2.20;1.40;;;;;;;6.46;100.00;91908.00;5028889;28;20026;-77
2023/12/11 16:05:15;;;;;;;1.40;1.30;;;;;;;6.40;100.00;91905.72;5022416;28;20472;-77
2023/12/11 16:07:41;;;;;;;1.73;1.17;;;;;;;6.32;100.00;91888.88;5019167;28;20030;-77
2023/12/11 16:10:07;;;;;;;2.10;1.48;;;;;;;6.26;100.00;91908.19;5019955;28;20651;-77
2023/12/11 16:12:32;;;;;;;2.50;1.63;;;;;;;6.42;100.00;91938.19;5026013;28;20042;-77
2023/12/11 16:14:58;;;;;;;2.25;1.55;;;;;;;6.39;100.00;91958.75;5017447;28;20079;-78
2023/12/11 16:17:23;;;;;;;3.70;2.20;;;;;;;6.17;100.00;91972.16;5025276;28;20092;-78
2023/12/11 16:19:49;;;;;;;3.22;1.60;;;;;;;6.03;100.00;91956.41;5019477;28;20118;-77
2023/12/11 16:22:15;;;;;;;4.38;2.05;;;;;;;6.04;100.00;91958.00;5043309;28;20509;-77
2023/12/11 16:24:41;;;;;;;1.45;1.30;;;;;;;6.01;100.00;91971.50;5017459;28;20041;-77
2023/12/11 16:27:07;;;;;;;1.45;1.20;;;;;;;6.01;100.00;91985.28;5024349;28;20034;-77
2023/12/11 16:29:35;;;;;;;2.00;1.40;;;;;;;6.03;100.00;91965.00;5026580;28;20029;-77
2023/12/11 16:32:01;;;;;;;3.15;1.45;;;;;;;6.02;100.00;91940.06;5035646;28;20030;-77
2023/12/11 16:34:28;;;;;;;1.60;1.30;;;;;;;6.01;100.00;91943.72;5019900;28;20662;-77
2023/12/11 16:36:53;;;;;;;1.75;1.25;;;;;;;5.98;100.00;91959.84;5007394;28;20041;-78
2023/12/11 16:39:19;;;;;;;1.92;1.30;;;;;;;6.00;100.00;91980.34;5004174;28;20030;-78
2023/12/11 16:41:45;;;;;;;1.95;1.42;;;;;;;5.98;100.00;91985.81;5008217;28;20038;-77
2023/12/11 16:44:14;;;;;;;1.92;1.40;;;;;;;6.00;100.00;91968.13;5012201;28;20026;-77
2023/12/11 16:46:43;;;;;;;1.73;1.30;;;;;;;5.95;100.00;91965.56;5008327;28;20034;-78
2023/12/11 16:49:13;;;;;;;3.30;1.52;;;;;;;5.90;100.00;91947.41;5005042;28;20095;-77
2023/12/11 16:51:39;;;;;;;2.28;1.50;;;;;;;5.84;100.00;91927.69;5007140;28;20034;-77
2023/12/11 16:54:06;;;;;;;1.83;1.40;;;;;;;5.77;100.00;91909.03;5007249;28;20052;-76
2023/12/11 16:56:32;;;;;;;1.20;1.10;;;;;;;5.82;100.00;91911.59;5013151;28;20393;-75
2023/12/11 16:58:57;;;;;;;2.13;1.40;;;;;;;5.98;100.00;91912.28;5010669;28;20065;-76
2023/12/11 17:01:23;;;;;;;2.60;1.67;;;;;;;5.93;100.00;91915.69;5013822;28;20484;-75
2023/12/11 17:03:50;;;;;;;3.47;1.90;;;;;;;5.84;100.00;91917.31;5014718;28;20072;-75
2023/12/11 17:06:21;;;;;;;3.30;1.38;;;;;;;6.08;100.00;91922.63;5018869;28;20042;-75
2023/12/11 17:08:47;;;;;;;2.40;1.60;;;;;;;6.03;100.00;91936.44;5004014;28;20542;-75
2023/12/11 17:11:12;;;;;;;2.53;1.52;;;;;;;5.84;100.00;91922.50;5016832;28;20046;-75
2023/12/11 17:13:38;;;;;;;1.35;1.10;;;;;;;5.97;100.00;91919.31;5020803;28;20029;-74
2023/12/11 17:16:04;;;;;;;2.15;1.42;;;;;;;5.74;100.00;91923.34;5002821;28;20075;-75
2023/12/11 17:18:30;;;;;;;2.67;1.63;;;;;;;5.84;100.00;91927.69;5013335;28;20100;-75
2023/12/11 17:20:56;;;;;;;2.85;1.63;;;;;;;5.61;100.00;91939.53;5010812;28;20453;-76
2023/12/11 17:23:22;;;;;;;2.08;1.40;;;;;;;5.48;100.00;91960.88;5017935;28;20068;-75
2023/12/11 17:25:47;;;;;;;2.22;1.45;;;;;;;5.39;100.00;91960.66;5022133;28;20507;-75
2023/12/11 17:28:14;;;;;;;2.15;1.40;;;;;;;5.34;100.00;91961.47;5009676;28;20038;-76
2023/12/11 17:30:40;;;;;;;1.88;1.40;;;;;;;5.47;100.00;91959.31;5011823;28;20036;-78
2023/12/11 17:33:05;;;;;;;3.35;2.10;;;;;;;5.31;100.00;91956.00;5015859;28;20026;-77
2023/12/11 17:35:31;;;;;;;2.10;1.50;;;;;;;5.25;100.00;91970.84;5019706;28;20095;-79
2023/12/11 17:37:56;;;;;;;2.25;1.33;;;;;;;5.15;100.00;91963.09;5007914;28;20549;-77
2023/12/11 17:40:22;;;;;;;2.03;1.30;;;;;;;5.16;100.00;91964.66;5022058;28;20040;-78
2023/12/11 17:42:48;;;;;;;2.13;1.40;;;;;;;5.13;100.00;91950.38;5014044;28;20091;-78
2023/12/11 17:45:14;;;;;;;3.63;1.90;;;;;;;5.09;100.00;91954.56;4995643;28;20501;-77
2023/12/11 17:47:40;;;;;;;2.00;1.50;;;;;;;5.10;100.00;91957.91;5005086;28;20030;-77
2023/12/11 17:50:08;;;;;;;3.03;1.88;;;;;;;5.09;100.00;91958.94;5008836;28;20040;-78
2023/12/11 17:52:33;;;;;;;2.55;1.58;;;;;;;5.06;100.00;91954.28;5012354;28;20025;-78
2023/12/11 17:55:00;;;;;;;4.15;1.50;;;;;;;5.04;100.00;91957.16;5001363;28;20053;-79
2023/12/11 17:57:26;;;;;;;2.03;1.30;;;;;;;5.03;100.00;91971.16;5014786;28;20543;-78
2023/12/11 17:59:52;;;;;;;3.45;1.75;;;;;;;5.06;100.00;91970.63;5014317;28;20029;-77
2023/12/11 18:02:17;;;;;;;2.53;1.60;;;;;;;5.06;100.00;91986.19;5011097;28;20099;-78
2023/12/11 18:04:44;;;;;;;3.35;2.05;;;;;;;5.07;100.00;91979.22;5009458;28;20527;-77
2023/12/11 18:07:09;;;;;;;2.88;1.80;;;;;;;5.12;100.00;91985.16;5011347;28;20038;-78
2023/12/11 18:09:36;;;;;;;6.30;3.53;;;;;;;5.13;100.00;91986.69;5021666;28;20049;-78
2023/12/11 18:12:02;;;;;;;4.60;2.90;;;;;;;5.10;100.00;91974.25;5007789;28;20139;-78
2023/12/11 18:14:28;;;;;;;4.03;2.10;;;;;;;5.12;100.00;91968.81;5007798;28;20472;-78
2023/12/11 18:16:53;;;;;;;3.63;2.00;;;;;;;5.10;100.00;91984.63;5009462;28;20033;-75
2023/12/11 18:19:19;;;;;;;4.05;2.40;;;;;;;5.09;100.00;91971.91;5005383;28;20493;-74
2023/12/11 18:21:45;;;;;;;4.25;1.80;;;;;;;5.11;100.00;91962.84;5008093;28;20589;-74
2023/12/11 18:24:10;;;;;;;4.38;2.38;;;;;;;5.12;100.00;91968.81;5006658;28;20498;-74
2023/12/11 18:26:36;;;;;;;3.22;1.90;;;;;;;5.09;100.00;91990.88;5009888;28;20123;-74
2023/12/11 18:29:02;;;;;;;4.43;2.50;;;;;;;5.07;100.00;91979.97;5027606;28;20079;-75
2023/12/11 18:31:27;;;;;;;4.13;2.50;;;;;;;5.06;100.00;91993.97;5028889;28;20469;-75
2023/12/11 18:33:53;;;;;;;3.65;2.20;;;;;;;5.00;100.00;91974.31;5028706;28;20041;-75
2023/12/11 18:36:18;;;;;;;3.53;2.00;;;;;;;5.02;100.00;91964.41;5027697;28;20064;-74
2023/12/11 18:38:44;;;;;;;2.97;1.77;;;;;;;5.01;100.00;91965.47;5027415;28;20064;-75
2023/12/11 18:41:09;;;;;;;3.22;1.88;;;;;;;5.01;100.00;91955.09;5028504;28;20083;-75
2023/12/11 18:43:35;;;;;;;3.33;1.92;;;;;;;5.04;100.00;91951.19;5028012;28;20058;-75
2023/12/11 18:46:02;;;;;;;2.90;1.80;;;;;;;5.03;100.00;91965.97;5027637;28;20036;-75
2023/12/11 18:48:28;;;;;;;3.38;1.92;;;;;;;5.01;100.00;91971.44;5029450;28;20112;-74
2023/12/11 18:50:54;;;;;;;3.03;1.80;;;;;;;5.02;100.00;91974.78;5027705;28;20569;-75
2023/12/11 18:53:20;;;;;;;2.88;1.80;;;;;;;5.00;100.00;91993.22;5028590;28;20021;-73
2023/12/11 18:55:46;;;;;;;3.85;1.88;;;;;;;4.98;100.00;91999.72;5010449;28;20406;-75
2023/12/11 18:58:12;;;;;;;4.22;1.98;;;;;;;4.99;100.00;91988.28;5008572;28;20021;-75
2023/12/11 19:00:37;;;;;;;3.75;2.00;;;;;;;4.98;100.00;91990.13;5008648;28;20046;-75
2023/12/11 19:03:03;;;;;;;8.40;5.00;;;;;;;5.14;100.00;91983.06;5008713;28;20443;-74
2023/12/11 19:05:29;;;;;;;3.30;2.25;;;;;;;5.06;100.00;91985.44;5008849;28;20624;-74
2023/12/11 19:07:56;;;;;;;2.80;1.70;;;;;;;5.02;100.00;91985.16;5024144;28;20033;-74
2023/12/11 19:10:22;;;;;;;3.85;2.05;;;;;;;5.05;100.00;91987.25;5007737;28;20409;-75
2023/12/11 19:12:49;;;;;;;2.63;1.67;;;;;;;5.00;100.00;91997.66;5009054;28;20046;-75
2023/12/11 19:15:15;;;;;;;3.65;2.30;;;;;;;4.93;100.00;91984.94;5014431;28;20504;-75
2023/12/11 19:17:41;;;;;;;3.47;2.00;;;;;;;4.89;100.00;91993.53;5028862;28;20045;-75
2023/12/11 19:20:09;;;;;;;3.00;1.83;;;;;;;4.83;100.00;91984.97;4988953;28;20081;-76
2023/12/11 19:22:35;;;;;;;2.53;1.50;;;;;;;4.77;100.00;91993.78;4989024;28;20842;-76
2023/12/11 19:25:01;;;;;;;4.63;2.10;;;;;;;4.72;100.00;91998.97;4987716;28;20158;-75
2023/12/11 19:27:27;;;;;;;3.70;1.98;;;;;;;4.71;100.00;91982.66;4988907;28;20088;-75
2023/12/11 19:29:53;;;;;;;3.60;1.88;;;;;;;4.68;100.00;92003.13;4988101;28;20397;-73
2023/12/11 19:32:19;;;;;;;6.15;2.20;;;;;;;4.58;100.00;91972.81;4989511;28;20039;-74
2023/12/11 19:34:45;;;;;;;3.90;2.25;;;;;;;4.53;100.00;91983.19;4989235;28;20038;-76
2023/12/11 19:37:11;;;;;;;3.45;2.10;;;;;;;4.47;100.00;91981.66;4956211;28;20458;-75
2023/12/11 19:39:36;;;;;;;5.18;3.40;;;;;;;4.46;100.00;91983.47;4992156;28;20104;-75
2023/12/11 19:42:02;;;;;;;4.00;2.50;;;;;;;4.45;100.00;91988.91;5006982;28;20038;-75
2023/12/11 19:44:28;;;;;;;3.67;2.22;;;;;;;4.40;100.00;91996.69;5008775;28;20048;-75
2023/12/11 19:46:54;;;;;;;2.65;1.63;;;;;;;4.34;100.00;91981.13;5008262;28;20026;-76
2023/12/11 19:49:21;;;;;;;2.03;1.40;;;;;;;4.32;100.00;91992.78;5007462;28;20500;-75
2023/12/11 19:51:46;;;;;;;1.85;1.27;;;;;;;4.29;100.00;91994.09;5008157;28;20054;-74
2023/12/11 19:54:12;;;;;;;1.85;1.30;;;;;;;4.26;100.00;92012.75;5008504;28;20061;-73
2023/12/11 19:56:38;;;;;;;3.72;2.10;;;;;;;4.22;100.00;91996.16;5007776;28;20056;-74
2023/12/11 19:59:03;;;;;;;4.05;1.55;;;;;;;4.20;100.00;91990.44;5006653;28;20408;-74
2023/12/11 20:01:30;;;;;;;2.33;1.58;;;;;;;4.24;100.00;92004.44;5007674;28;20461;-74
2023/12/11 20:03:56;;;;;;;2.65;1.80;;;;;;;4.17;100.00;92001.34;5007960;28;20065;-75
2023/12/11 20:06:28;;;;;;;2.03;1.45;;;;;;;4.12;100.00;92011.69;5008241;28;20046;-74
2023/12/11 20:08:54;;;;;;;3.90;2.05;;;;;;;4.06;100.00;91992.78;5009168;28;20120;-74
2023/12/11 20:11:20;;;;;;;3.97;1.98;;;;;;;4.02;100.00;92003.91;5009962;28;20034;-74
2023/12/11 20:13:46;;;;;;;2.45;1.55;;;;;;;4.01;100.00;92023.88;5011166;28;20125;-74
2023/12/11 20:16:12;;;;;;;2.42;1.40;;;;;;;4.02;100.00;92029.81;5043011;28;20030;-74
2023/12/11 20:18:37;;;;;;;3.08;1.80;;;;;;;3.99;100.00;92031.09;5011127;28;20096;-73
2023/12/11 20:21:03;;;;;;;2.85;1.60;;;;;;;4.00;100.00;92008.56;5011163;28;20519;-74
2023/12/11 20:23:29;;;;;;;2.33;1.40;;;;;;;3.97;100.00;92015.81;5011029;28;20042;-74
2023/12/11 20:26:00;;;;;;;1.42;1.20;;;;;;;3.97;100.00;92022.81;5010210;28;20045;-74
2023/12/11 20:28:29;;;;;;;2.88;1.90;;;;;;;3.94;100.00;92021.50;4994583;28;20038;-73
2023/12/11 20:30:58;;;;;;;3.72;2.15;;;;;;;4.01;100.00;91984.22;5011097;28;20026;-74
2023/12/11 20:33:24;;;;;;;3.15;1.70;;;;;;;3.96;100.00;92034.19;5011104;28;20041;-75
2023/12/11 20:35:50;;;;;;;2.13;1.50;;;;;;;3.83;100.00;92017.34;5010880;28;20038;-73
2023/12/11 20:38:15;;;;;;;2.78;1.60;;;;;;;3.83;100.00;92024.31;5021109;28;20034;-73
2023/12/11 20:40:41;;;;;;;3.20;1.88;;;;;;;3.82;100.00;92039.09;5010799;28;20048;-74
2023/12/11 20:43:07;;;;;;;3.88;2.10;;;;;;;3.77;100.00;92028.72;5010229;28;20044;-73
2023/12/11 20:45:33;;;;;;;4.20;3.10;;;;;;;3.75;100.00;92025.59;5010998;28;20068;-74
2023/12/11 20:47:59;;;;;;;3.92;2.38;;;;;;;3.75;100.00;92010.84;5010934;28;20034;-74
2023/12/11 20:50:25;;;;;;;5.53;2.88;;;;;;;4.05;100.00;92044.81;5011040;28;20403;-75
2023/12/11 20:52:52;;;;;;;5.22;2.63;;;;;;;3.94;100.00;92039.66;5010833;28;20118;-74
2023/12/11 20:55:18;;;;;;;4.53;2.42;;;;;;;3.87;100.00;92027.97;5011488;28;20030;-74
2023/12/11 20:57:43;;;;;;;4.00;2.60;;;;;;;3.80;100.00;92028.19;5008897;28;20048;-74
2023/12/11 21:00:10;;;;;;;4.32;2.88;;;;;;;3.75;100.00;92020.44;5009759;28;20042;-73
2023/12/11 21:02:39;;;;;;;4.95;3.50;;;;;;;3.69;100.00;92019.66;5009772;28;20453;-73
2023/12/11 21:05:05;;;;;;;2.60;1.67;;;;;;;3.79;100.00;92003.34;5011016;28;20452;-74
2023/12/11 21:07:30;;;;;;;3.75;2.13;;;;;;;3.82;100.00;92005.41;5010534;28;20026;-75
2023/12/11 21:09:56;;;;;;;4.00;2.10;;;;;;;4.04;100.00;92014.78;5010748;28;20049;-71
2023/12/11 21:12:22;;;;;;;3.22;1.98;;;;;;;3.99;100.00;92023.34;5010629;28;20097;-74
2023/12/11 21:14:48;;;;;;;3.72;2.00;;;;;;;3.92;100.00;92026.19;5010449;28;20440;-74
2023/12/11 21:17:14;;;;;;;3.75;2.25;;;;;;;3.77;100.00;92017.59;5010022;28;20034;-73
2023/12/11 21:19:40;;;;;;;3.53;2.13;;;;;;;3.73;100.00;92032.84;5021829;28;20575;-74
2023/12/11 21:22:06;;;;;;;3.42;2.00;;;;;;;3.67;100.00;92020.91;5009673;28;20086;-73
2023/12/11 21:24:31;;;;;;;3.38;1.90;;;;;;;3.58;100.00;92031.00;5021906;28;20037;-74
2023/12/11 21:26:57;;;;;;;4.63;2.92;;;;;;;3.51;100.00;92036.41;5028372;28;20131;-74
2023/12/11 21:29:22;;;;;;;3.50;2.25;;;;;;;3.47;100.00;92045.72;5014308;28;20042;-74
2023/12/11 21:31:48;;;;;;;3.75;2.10;;;;;;;3.40;100.00;92042.59;5018660;28;20108;-72
2023/12/11 21:34:13;;;;;;;4.18;1.90;;;;;;;3.38;100.00;92046.44;5030013;28;20044;-74
2023/12/11 21:36:39;;;;;;;2.78;1.67;;;;;;;3.35;100.00;92052.88;5028573;28;20447;-73
2023/12/11 21:39:05;;;;;;;3.17;1.60;;;;;;;3.31;100.00;92057.00;5029063;28;20041;-71
2023/12/11 21:41:30;;;;;;;2.83;1.85;;;;;;;3.28;100.00;92047.94;5029115;28;20042;-73
2023/12/11 21:43:58;;;;;;;3.05;1.80;;;;;;;3.25;100.00;92047.69;5012812;28;20057;-73
2023/12/11 21:46:25;;;;;;;2.17;1.60;;;;;;;3.20;100.00;92050.22;5009700;28;20120;-71
2023/12/11 21:48:51;;;;;;;2.45;1.60;;;;;;;3.18;100.00;92057.47;5016854;28;20049;-73
2023/12/11 21:51:18;;;;;;;1.83;1.40;;;;;;;3.15;100.00;92063.91;5025908;28;20037;-73
2023/12/11 21:53:44;;;;;;;3.15;1.52;;;;;;;3.12;100.00;92059.25;5010012;28;20026;-74
2023/12/11 21:56:10;;;;;;;2.72;1.40;;;;;;;3.10;100.00;92071.66;5009346;28;20389;-74
2023/12/11 21:58:36;;;;;;;2.22;1.50;;;;;;;3.07;100.00;92072.94;5009498;28;20796;-73
2023/12/11 22:01:02;;;;;;;1.88;1.40;;;;;;;3.05;100.00;92062.06;5009257;28;20068;-73
2023/12/11 22:03:27;;;;;;;1.20;1.10;;;;;;;3.03;100.00;92056.34;5009168;28;20089;-73
2023/12/11 22:05:53;;;;;;;1.83;1.38;;;;;;;3.04;100.00;92073.44;5016485;28;20128;-73
2023/12/11 22:08:18;;;;;;;1.60;1.23;;;;;;;3.07;100.00;92057.41;5009064;28;20045;-74
2023/12/11 22:10:44;;;;;;;1.98;1.35;;;;;;;3.07;100.00;92052.25;5009245;28;20049;-74
2023/12/11 22:13:10;;;;;;;2.60;1.50;;;;;;;3.06;100.00;92045.53;5009906;28;20128;-74
